Time;durP1;ratioP1;P1;durP2;ratioP2;P2;SDS_P1;SDS_P2;PMS_P1;PMS_P2;Temp;Humidity;BMP_temperature;BMP_pressure;BME280_temperature;BME280_humidity;BME280_pressure;Samples;Min_cycle;Max_cycle;Signal;HPM_P1;HPM_P2
2023/01/14 00:00:24;;;;;;;3.90;1.98;;;7.30;99.90;;;;;;2066680;28;20017;-85
2023/01/14 00:01:27;;;;;;;6.82;2.20;;;7.30;99.90;;;;;;2075858;28;20432;-84
2023/01/14 00:02:28;;;;;;;6.03;2.00;;;7.30;99.90;;;;;;2069937;28;20054;-82
2023/01/14 00:03:30;;;;;;;5.38;2.05;;;7.30;99.90;;;;;;2067551;28;20621;-84
2023/01/14 00:04:31;;;;;;;6.90;2.25;;;7.30;99.90;;;;;;2068714;28;20030;-82
2023/01/14 00:05:31;;;;;;;4.68;1.88;;;7.30;99.90;;;;;;2075956;28;20120;-82
2023/01/14 00:06:33;;;;;;;6.45;2.40;;;7.30;99.90;;;;;;2079455;28;20241;-82
2023/01/14 00:07:34;;;;;;;4.95;2.00;;;7.30;99.90;;;;;;2075931;28;20211;-84
2023/01/14 00:08:34;;;;;;;5.55;2.10;;;7.30;99.90;;;;;;2077118;28;20459;-83
2023/01/14 00:09:35;;;;;;;5.40;2.30;;;7.30;99.90;;;;;;2070555;28;20654;-83
2023/01/14 00:10:37;;;;;;;8.10;2.13;;;7.30;99.90;;;;;;2072360;28;20432;-83
2023/01/14 00:11:47;;;;;;;6.32;2.35;;;7.30;99.90;;;;;;2077392;28;20033;-84
2023/01/14 00:12:47;;;;;;;5.25;2.00;;;7.30;99.90;;;;;;2061062;28;20576;-85
2023/01/14 00:13:48;;;;;;;6.85;2.20;;;7.30;99.90;;;;;;2063864;28;20069;-83
2023/01/14 00:14:48;;;;;;;5.72;2.20;;;7.20;99.90;;;;;;2076033;28;20033;-84
2023/01/14 00:15:51;;;;;;;6.32;2.45;;;7.20;99.90;;;;;;2061111;28;20037;-85
2023/01/14 00:16:52;;;;;;;7.68;2.10;;;7.20;99.90;;;;;;2065084;28;20133;-84
2023/01/14 00:17:53;;;;;;;5.50;2.00;;;7.20;99.90;;;;;;2071209;28;20029;-84
2023/01/14 00:18:53;;;;;;;5.50;2.08;;;7.20;99.90;;;;;;2070529;28;20037;-84
2023/01/14 00:19:54;;;;;;;4.32;2.10;;;7.10;99.90;;;;;;2071226;28;20037;-83
2023/01/14 00:20:59;;;;;;;6.45;1.92;;;7.10;99.90;;;;;;2082094;28;20037;-84
2023/01/14 00:22:00;;;;;;;4.20;2.08;;;7.10;99.90;;;;;;2065367;28;20030;-85
2023/01/14 00:23:00;;;;;;;6.13;2.10;;;7.10;99.90;;;;;;2074522;28;20470;-85
2023/01/14 00:24:02;;;;;;;4.88;2.08;;;7.10;99.90;;;;;;2075125;28;20524;-86
2023/01/14 00:25:02;;;;;;;6.65;2.10;;;7.10;99.90;;;;;;2072204;28;20115;-87
2023/01/14 00:26:10;;;;;;;7.65;2.42;;;7.00;99.90;;;;;;2081011;28;20082;-83
2023/01/14 00:27:12;;;;;;;7.15;2.08;;;7.00;99.90;;;;;;2071453;28;20041;-84
2023/01/14 00:28:12;;;;;;;6.93;2.10;;;6.90;99.90;;;;;;2071941;28;20489;-86
2023/01/14 00:29:24;;;;;;;4.15;2.08;;;6.90;99.90;;;;;;2066727;28;20065;-83
2023/01/14 00:30:24;;;;;;;5.60;1.92;;;6.90;99.90;;;;;;2067181;28;20036;-85
2023/01/14 00:31:27;;;;;;;7.95;2.40;;;6.90;99.90;;;;;;2056540;28;20532;-86
2023/01/14 00:32:27;;;;;;;6.80;2.15;;;6.90;99.90;;;;;;2058229;28;20453;-86
2023/01/14 00:33:28;;;;;;;7.63;2.10;;;6.90;99.90;;;;;;2069181;28;20108;-87
2023/01/14 00:34:30;;;;;;;4.82;2.00;;;7.00;99.90;;;;;;2071844;28;20038;-86
2023/01/14 00:35:31;;;;;;;7.10;2.17;;;7.00;99.90;;;;;;2070438;28;20025;-85
2023/01/14 00:36:31;;;;;;;8.05;2.65;;;6.90;99.90;;;;;;2078692;28;20548;-87
2023/01/14 00:37:32;;;;;;;6.55;2.10;;;6.90;99.90;;;;;;2073827;28;20021;-83
2023/01/14 00:38:33;;;;;;;7.07;2.13;;;7.00;99.90;;;;;;2063713;28;20029;-84
2023/01/14 00:39:33;;;;;;;5.90;2.10;;;7.00;99.90;;;;;;2071221;28;20493;-86
2023/01/14 00:40:34;;;;;;;4.70;2.00;;;7.00;99.90;;;;;;2072032;28;20014;-85
2023/01/14 00:41:35;;;;;;;7.45;2.35;;;7.10;99.90;;;;;;2073618;28;20514;-83
2023/01/14 00:42:35;;;;;;;5.13;2.20;;;7.10;99.90;;;;;;2072820;28;20041;-84
2023/01/14 00:43:37;;;;;;;5.35;2.00;;;7.10;99.90;;;;;;2066046;28;20030;-85
2023/01/14 00:44:38;;;;;;;8.25;2.05;;;7.20;99.90;;;;;;2060124;28;20443;-81
2023/01/14 00:45:39;;;;;;;6.53;2.00;;;7.20;99.90;;;;;;2071351;28;20022;-80
2023/01/14 00:46:41;;;;;;;6.15;1.85;;;7.10;99.90;;;;;;2071874;28;20022;-81
2023/01/14 00:47:41;;;;;;;8.00;2.42;;;7.20;99.90;;;;;;2066954;28;20037;-84
2023/01/14 00:48:42;;;;;;;5.13;2.10;;;7.10;99.90;;;;;;2069600;28;20049;-84
2023/01/14 00:49:43;;;;;;;8.50;2.33;;;7.10;99.90;;;;;;2070741;28;20034;-84
2023/01/14 00:50:43;;;;;;;7.00;1.90;;;7.10;99.90;;;;;;2077950;28;20036;-85
2023/01/14 00:51:44;;;;;;;6.28;2.08;;;7.10;99.90;;;;;;2060798;28;20067;-84
2023/01/14 00:52:44;;;;;;;5.75;2.20;;;7.10;99.90;;;;;;2064447;28;20042;-87
2023/01/14 00:53:45;;;;;;;5.32;1.85;;;7.10;99.90;;;;;;2067195;28;20030;-85
2023/01/14 00:54:46;;;;;;;7.93;2.00;;;7.10;99.90;;;;;;2064868;28;20563;-86
2023/01/14 00:55:46;;;;;;;4.68;1.90;;;7.10;99.90;;;;;;2086803;28;20066;-85
2023/01/14 00:56:48;;;;;;;5.82;2.10;;;7.10;99.90;;;;;;2070823;28;20033;-86
2023/01/14 00:57:48;;;;;;;7.18;2.00;;;7.10;99.90;;;;;;2070271;28;20484;-85
2023/01/14 00:58:50;;;;;;;9.13;2.17;;;7.10;99.90;;;;;;2068726;28;20025;-85
2023/01/14 00:59:52;;;;;;;7.80;2.38;;;7.10;99.90;;;;;;2061324;28;20045;-84
2023/01/14 01:00:55;;;;;;;5.72;2.03;;;7.10;99.90;;;;;;2072125;28;20036;-83
2023/01/14 01:01:57;;;;;;;6.63;2.10;;;7.10;99.90;;;;;;2068244;28;20026;-83
2023/01/14 01:02:57;;;;;;;6.38;1.92;;;7.10;99.90;;;;;;2068326;28;20037;-84
2023/01/14 01:03:58;;;;;;;6.85;2.00;;;7.10;99.90;;;;;;2087406;28;20055;-86
2023/01/14 01:04:58;;;;;;;5.30;2.15;;;7.10;99.90;;;;;;2079851;28;20374;-85
2023/01/14 01:05:59;;;;;;;5.10;1.98;;;7.10;99.90;;;;;;2079994;28;20029;-84
2023/01/14 01:07:01;;;;;;;5.50;2.00;;;7.10;99.90;;;;;;2081348;28;20025;-83
2023/01/14 01:08:04;;;;;;;7.18;2.00;;;7.10;99.90;;;;;;2062026;28;20019;-84
2023/01/14 01:09:04;;;;;;;7.25;2.03;;;7.10;99.90;;;;;;2062175;28;20046;-84
2023/01/14 01:10:05;;;;;;;5.18;1.80;;;7.10;99.90;;;;;;2062116;28;20214;-85
2023/01/14 01:11:08;;;;;;;6.60;2.05;;;7.10;99.90;;;;;;2071290;28;20034;-83
2023/01/14 01:12:08;;;;;;;6.82;1.98;;;7.20;99.90;;;;;;2059757;28;20046;-82
2023/01/14 01:13:10;;;;;;;6.75;2.10;;;7.20;99.90;;;;;;2066457;28;20438;-84
2023/01/14 01:14:12;;;;;;;7.43;2.10;;;7.20;99.90;;;;;;2067404;28;20174;-84
2023/01/14 01:15:13;;;;;;;5.50;1.75;;;7.20;99.90;;;;;;2067561;28;20437;-84
2023/01/14 01:16:16;;;;;;;7.22;2.10;;;7.30;99.90;;;;;;2081628;28;20113;-83
2023/01/14 01:17:16;;;;;;;5.28;1.88;;;7.30;99.90;;;;;;2076395;28;20082;-84
2023/01/14 01:18:17;;;;;;;7.07;2.20;;;7.30;99.90;;;;;;2070377;28;20123;-84
2023/01/14 01:19:17;;;;;;;5.25;1.92;;;7.30;99.90;;;;;;2062663;28;20122;-83
2023/01/14 01:20:18;;;;;;;5.65;2.00;;;7.30;99.90;;;;;;2067227;28;20044;-84
2023/01/14 01:21:19;;;;;;;9.57;2.28;;;7.40;99.90;;;;;;2073276;28;20069;-85
2023/01/14 01:22:21;;;;;;;4.90;1.95;;;7.40;99.90;;;;;;2064747;28;20775;-84
2023/01/14 01:23:21;;;;;;;5.70;1.90;;;7.40;99.90;;;;;;2073475;28;20013;-84
2023/01/14 01:24:22;;;;;;;6.90;2.00;;;7.40;99.90;;;;;;2080825;28;20040;-83
2023/01/14 01:25:23;;;;;;;8.32;2.03;;;7.50;99.90;;;;;;2081398;28;20052;-83
2023/01/14 01:26:25;;;;;;;6.18;2.03;;;7.50;99.90;;;;;;2075091;28;20588;-83
2023/01/14 01:27:25;;;;;;;4.72;1.92;;;7.50;99.90;;;;;;2070247;28;20405;-84
2023/01/14 01:28:26;;;;;;;8.60;1.85;;;7.50;99.90;;;;;;2070560;28;20014;-83
2023/01/14 01:29:26;;;;;;;4.90;2.00;;;7.50;99.90;;;;;;2062416;28;20548;-81
2023/01/14 01:30:27;;;;;;;7.25;2.10;;;7.50;99.90;;;;;;2064294;28;20064;-82
2023/01/14 01:31:28;;;;;;;4.97;2.00;;;7.50;99.90;;;;;;2067214;28;20040;-84
2023/01/14 01:32:28;;;;;;;5.38;1.75;;;7.50;99.90;;;;;;2080462;28;20029;-83
2023/01/14 01:33:29;;;;;;;7.47;1.90;;;7.50;99.90;;;;;;2077584;28;20076;-83
2023/01/14 01:34:30;;;;;;;5.05;1.90;;;7.50;99.90;;;;;;2073141;28;20065;-80
2023/01/14 01:35:31;;;;;;;7.93;2.38;;;7.50;99.90;;;;;;2077879;28;20021;-82
2023/01/14 01:36:32;;;;;;;4.50;1.95;;;7.60;99.90;;;;;;2078932;28;20404;-82
2023/01/14 01:37:33;;;;;;;7.22;2.00;;;7.60;99.90;;;;;;2069521;28;20116;-81
2023/01/14 01:38:34;;;;;;;4.68;1.70;;;7.50;99.90;;;;;;2072592;28;20029;-81
2023/01/14 01:39:34;;;;;;;6.57;1.75;;;7.60;99.90;;;;;;2070376;28;20034;-82
2023/01/14 01:40:36;;;;;;;7.43;1.92;;;7.60;99.90;;;;;;2066570;28;20062;-80
2023/01/14 01:41:37;;;;;;;6.63;1.80;;;7.60;99.90;;;;;;2067024;28;20701;-80
2023/01/14 01:42:54;;;;;;;5.45;1.80;;;7.50;99.90;;;;;;2080487;28;20032;-81
2023/01/14 01:44:07;;;;;;;5.07;1.50;;;7.50;99.90;;;;;;2066830;28;20109;-81
2023/01/14 01:45:25;;;;;;;6.25;1.95;;;7.60;99.90;;;;;;2063202;28;20077;-82
2023/01/14 01:46:26;;;;;;;5.53;1.80;;;7.60;99.90;;;;;;2066079;28;20053;-82
2023/01/14 01:47:28;;;;;;;6.82;1.80;;;7.50;99.90;;;;;;2079666;28;20037;-82
2023/01/14 01:48:35;;;;;;;6.07;2.28;;;7.60;99.90;;;;;;2079429;28;20032;-83
2023/01/14 01:49:38;;;;;;;8.93;1.83;;;7.60;99.90;;;;;;2069192;28;20092;-82
2023/01/14 01:50:39;;;;;;;5.30;1.85;;;7.50;99.90;;;;;;2079595;28;20048;-84
2023/01/14 01:52:18;;;;;;;4.78;1.70;;;7.50;99.90;;;;;;2067680;28;20529;-81
2023/01/14 01:53:20;;;;;;;6.32;1.67;;;7.50;99.90;;;;;;2062717;28;20064;-80
2023/01/14 01:54:30;;;;;;;6.88;1.88;;;7.60;99.90;;;;;;2070362;28;20034;-79
2023/01/14 01:55:33;;;;;;;5.03;1.70;;;7.60;99.90;;;;;;2078637;28;20037;-82
2023/01/14 01:56:37;;;;;;;5.25;1.70;;;7.50;99.90;;;;;;2079534;28;20056;-81
2023/01/14 01:57:41;;;;;;;5.35;1.92;;;7.50;99.90;;;;;;2074005;28;20586;-82
2023/01/14 01:58:42;;;;;;;4.75;1.83;;;7.50;99.90;;;;;;2066157;28;20681;-81
2023/01/14 01:59:51;;;;;;;4.65;1.90;;;7.50;99.90;;;;;;2070462;28;20232;-81
2023/01/14 02:00:53;;;;;;;4.03;1.83;;;7.50;99.90;;;;;;2074989;28;20092;-82
2023/01/14 02:01:54;;;;;;;5.07;1.77;;;7.50;99.90;;;;;;2067147;28;20453;-82
2023/01/14 02:03:02;;;;;;;6.20;1.67;;;7.50;99.90;;;;;;2055958;28;20265;-84
2023/01/14 02:04:04;;;;;;;5.45;1.80;;;7.50;99.90;;;;;;2063731;28;20034;-82
2023/01/14 02:05:05;;;;;;;5.75;1.80;;;7.50;99.90;;;;;;2061790;28;20030;-80
2023/01/14 02:06:09;;;;;;;3.97;1.80;;;7.50;99.90;;;;;;2060652;28;20042;-82
2023/01/14 02:07:21;;;;;;;4.78;1.70;;;7.50;99.90;;;;;;2058388;28;20037;-83
2023/01/14 02:08:25;;;;;;;5.80;1.70;;;7.50;99.90;;;;;;2061757;28;20030;-82
2023/01/14 02:09:27;;;;;;;5.85;1.70;;;7.50;99.90;;;;;;2069363;28;20089;-83
2023/01/14 02:10:41;;;;;;;6.25;1.83;;;7.50;99.90;;;;;;2072377;28;20076;-82
2023/01/14 02:12:08;;;;;;;7.25;1.80;;;7.50;99.90;;;;;;2069607;28;20071;-82
2023/01/14 02:13:45;;;;;;;5.72;1.63;;;7.50;99.90;;;;;;2061797;28;20097;-80
2023/01/14 02:15:04;;;;;;;6.32;1.80;;;7.40;99.90;;;;;;2070348;28;20029;-79
2023/01/14 02:16:24;;;;;;;4.68;1.92;;;7.50;99.90;;;;;;2062705;28;20517;-83
2023/01/14 02:17:52;;;;;;;5.80;1.90;;;7.40;99.90;;;;;;2065508;28;20476;-82
2023/01/14 02:19:28;;;;;;;5.70;1.85;;;7.40;99.90;;;;;;2063767;28;20046;-81
2023/01/14 02:20:41;;;;;;;6.82;1.83;;;7.50;99.90;;;;;;2058120;28;20030;-83
2023/01/14 02:21:58;;;;;;;7.75;1.80;;;7.50;99.90;;;;;;2059021;28;20061;-81
2023/01/14 02:23:34;;;;;;;8.57;2.05;;;7.40;99.90;;;;;;2072423;28;20026;-80
2023/01/14 02:25:13;;;;;;;5.57;1.85;;;7.50;99.90;;;;;;2062947;28;20494;-79
2023/01/14 02:26:24;;;;;;;7.32;2.00;;;7.50;99.90;;;;;;2065628;28;20056;-80
2023/01/14 02:27:38;;;;;;;5.97;1.90;;;7.50;99.90;;;;;;2059613;28;20055;-80
2023/01/14 02:29:17;;;;;;;5.97;1.65;;;7.50;99.90;;;;;;2063842;28;20124;-81
2023/01/14 02:30:21;;;;;;;6.47;1.70;;;7.50;99.90;;;;;;2044724;28;20361;-84
2023/01/14 02:31:45;;;;;;;3.83;1.65;;;7.50;99.90;;;;;;2044891;28;20186;-80
2023/01/14 02:33:03;;;;;;;4.82;1.98;;;7.50;99.90;;;;;;2063795;28;20111;-81
2023/01/14 02:34:21;;;;;;;6.80;2.03;;;7.50;99.90;;;;;;2064271;28;20032;-82
2023/01/14 02:35:43;;;;;;;7.78;2.00;;;7.50;99.90;;;;;;2060139;28;20026;-80
2023/01/14 02:36:56;;;;;;;;;;;7.50;99.90;;;;;;2067031;28;20036;-84
2023/01/14 02:38:25;;;;;;;7.43;1.80;;;7.60;99.90;;;;;;2067341;28;20364;-82
2023/01/14 02:39:37;;;;;;;7.68;2.00;;;7.60;99.90;;;;;;2065019;28;20081;-81
2023/01/14 02:41:15;;;;;;;5.63;2.05;;;7.70;99.90;;;;;;2054581;28;20014;-82
2023/01/14 02:44:10;;;;;;;5.68;2.03;;;7.70;99.90;;;;;;2075892;28;20565;-81
2023/01/14 02:45:24;;;;;;;6.53;1.80;;;7.70;99.90;;;;;;2064702;28;20028;-81
2023/01/14 02:46:34;;;;;;;7.75;2.00;;;7.80;99.90;;;;;;2067631;28;20084;-80
2023/01/14 02:47:41;;;;;;;6.97;1.90;;;7.80;99.90;;;;;;2072415;28;20035;-83
2023/01/14 02:48:46;;;;;;;7.90;2.00;;;7.80;99.90;;;;;;2069901;28;20180;-79
2023/01/14 02:49:51;;;;;;;7.57;1.80;;;7.70;99.90;;;;;;2068137;28;20026;-82
2023/01/14 02:50:53;;;;;;;8.05;1.85;;;7.80;99.90;;;;;;2069411;28;20022;-80
2023/01/14 02:51:56;;;;;;;6.28;1.60;;;7.80;99.90;;;;;;2063655;28;20034;-81
2023/01/14 02:52:57;;;;;;;5.95;1.73;;;7.80;99.90;;;;;;2063931;28;20029;-83
2023/01/14 02:54:00;;;;;;;6.15;1.70;;;7.80;99.90;;;;;;2061754;28;20080;-80
2023/01/14 02:55:26;;;;;;;6.35;1.85;;;7.80;99.90;;;;;;2064212;28;20505;-81
2023/01/14 02:56:30;;;;;;;5.68;1.73;;;7.80;99.90;;;;;;2057421;28;20023;-80
2023/01/14 02:57:41;;;;;;;4.47;1.70;;;7.80;99.90;;;;;;2069079;28;20053;-82
2023/01/14 02:58:58;;;;;;;6.35;1.70;;;7.80;99.90;;;;;;2068463;28;20464;-82
2023/01/14 03:00:21;;;;;;;5.50;1.83;;;7.80;99.90;;;;;;2067749;28;20026;-78
2023/01/14 03:01:44;;;;;;;5.22;1.83;;;7.80;99.90;;;;;;2058352;28;20046;-81
2023/01/14 03:02:58;;;;;;;5.55;1.45;;;7.70;99.90;;;;;;2053190;28;20093;-84
2023/01/14 03:04:17;;;;;;;6.10;1.75;;;7.80;99.90;;;;;;2059684;28;20034;-82
2023/01/14 03:05:21;;;;;;;4.60;1.52;;;7.80;99.90;;;;;;2063493;28;20029;-82
2023/01/14 03:06:49;;;;;;;7.47;1.70;;;7.70;99.90;;;;;;2064789;28;20041;-82
2023/01/14 03:08:03;;;;;;;6.88;1.80;;;7.70;99.90;;;;;;2065048;28;20026;-80
2023/01/14 03:09:13;;;;;;;5.65;1.70;;;7.70;99.90;;;;;;2060016;28;20276;-83
2023/01/14 03:10:26;;;;;;;7.00;1.90;;;7.70;99.90;;;;;;2055167;28;20110;-81
2023/01/14 03:11:47;;;;;;;5.68;1.70;;;7.60;99.90;;;;;;2057172;28;20031;-82
2023/01/14 03:13:05;;;;;;;5.55;1.90;;;7.60;99.90;;;;;;2056885;28;20030;-82
2023/01/14 03:14:17;;;;;;;5.05;1.70;;;7.60;99.90;;;;;;2062936;28;20160;-82
2023/01/14 03:15:41;;;;;;;6.22;1.52;;;7.60;99.90;;;;;;2061493;28;20030;-81
2023/01/14 03:16:48;;;;;;;6.07;1.70;;;7.60;99.90;;;;;;2072236;28;20562;-83
2023/01/14 03:18:16;;;;;;;5.40;1.75;;;7.60;99.90;;;;;;2067294;28;20030;-84
2023/01/14 03:19:19;;;;;;;8.40;1.70;;;7.60;99.90;;;;;;2063840;28;20538;-79
2023/01/14 03:20:26;;;;;;;4.28;1.73;;;7.60;99.90;;;;;;2047347;28;20035;-81
2023/01/14 03:21:34;;;;;;;5.20;1.90;;;7.60;99.90;;;;;;2048570;28;20393;-81
2023/01/14 03:22:37;;;;;;;5.78;1.67;;;7.60;99.90;;;;;;2055879;28;20135;-80
2023/01/14 03:23:48;;;;;;;6.90;1.88;;;7.60;99.90;;;;;;2061291;28;20127;-82
2023/01/14 03:24:50;;;;;;;5.50;1.80;;;7.60;99.90;;;;;;2062114;28;20543;-82
2023/01/14 03:25:51;;;;;;;4.45;1.70;;;7.60;99.90;;;;;;2056521;28;20038;-80
2023/01/14 03:27:04;;;;;;;5.00;1.85;;;7.60;99.90;;;;;;2055479;28;20038;-82
2023/01/14 03:28:08;;;;;;;5.38;1.80;;;7.60;99.90;;;;;;2048555;28;20031;-82
2023/01/14 03:29:14;;;;;;;5.45;1.73;;;7.50;99.90;;;;;;2062341;28;20033;-80
2023/01/14 03:30:20;;;;;;;5.10;1.75;;;7.50;99.90;;;;;;2061730;28;20517;-83
2023/01/14 03:31:26;;;;;;;6.40;1.65;;;7.50;99.90;;;;;;2059193;28;20706;-83
2023/01/14 03:32:35;;;;;;;7.85;1.95;;;7.50;99.90;;;;;;2052285;28;20034;-82
2023/01/14 03:33:40;;;;;;;5.70;1.77;;;7.50;99.90;;;;;;2061773;28;20561;-82
2023/01/14 03:34:56;;;;;;;6.43;1.50;;;7.50;99.90;;;;;;2061910;28;20030;-82
2023/01/14 03:35:58;;;;;;;6.03;1.85;;;7.50;99.90;;;;;;2055138;28;20581;-83
2023/01/14 03:37:02;;;;;;;6.55;1.67;;;7.50;99.90;;;;;;2062154;28;20034;-83
2023/01/14 03:38:23;;;;;;;5.78;1.70;;;7.50;99.90;;;;;;2061770;28;20060;-80
2023/01/14 03:39:26;;;;;;;6.32;1.73;;;7.50;99.90;;;;;;2061661;28;20049;-82
2023/01/14 03:40:30;;;;;;;8.02;1.60;;;7.50;99.90;;;;;;2062316;28;20113;-81
2023/01/14 03:42:57;;;;;;;3.92;1.50;;;7.50;99.90;;;;;;2059937;28;20022;-79
2023/01/14 03:44:01;;;;;;;4.88;1.55;;;7.50;99.90;;;;;;2060771;28;20357;-81
2023/01/14 03:45:20;;;;;;;4.65;1.77;;;7.40;99.90;;;;;;2054005;28;20027;-81
2023/01/14 03:46:21;;;;;;;7.40;2.03;;;7.40;99.90;;;;;;2062021;28;20019;-80
2023/01/14 03:47:22;;;;;;;4.85;1.70;;;7.40;99.90;;;;;;2061873;28;20038;-84
2023/01/14 03:48:23;;;;;;;6.72;1.88;;;7.40;99.90;;;;;;2062208;28;20076;-82
2023/01/14 03:49:24;;;;;;;5.47;1.73;;;7.40;99.90;;;;;;2064875;28;20049;-83
2023/01/14 03:50:30;;;;;;;5.30;1.80;;;7.40;99.90;;;;;;2066332;28;20046;-82
2023/01/14 03:51:47;;;;;;;6.05;1.70;;;7.40;99.90;;;;;;2069953;28;20029;-83
2023/01/14 03:53:04;;;;;;;6.78;1.77;;;7.40;99.90;;;;;;2061721;28;20466;-81
2023/01/14 03:54:31;;;;;;;4.47;1.80;;;7.40;99.90;;;;;;2057968;28;20487;-81
2023/01/14 03:55:56;;;;;;;8.63;2.15;;;7.40;99.90;;;;;;2064620;28;20029;-83
2023/01/14 03:57:20;;;;;;;3.47;1.70;;;7.30;99.90;;;;;;2063901;28;20116;-80
2023/01/14 03:58:34;;;;;;;3.78;1.60;;;7.30;99.90;;;;;;2062907;28;20036;-80
2023/01/14 03:59:55;;;;;;;6.95;1.90;;;7.30;99.90;;;;;;2062123;28;20105;-82
2023/01/14 04:01:01;;;;;;;8.00;1.90;;;7.30;99.90;;;;;;2056787;28;20498;-80
2023/01/14 04:02:04;;;;;;;7.43;1.80;;;7.30;99.90;;;;;;2064805;28;20054;-83
2023/01/14 04:03:09;;;;;;;5.82;1.63;;;7.30;99.90;;;;;;2057627;28;20544;-80
2023/01/14 04:04:11;;;;;;;5.78;1.80;;;7.30;99.90;;;;;;2061196;28;20095;-84
2023/01/14 04:05:12;;;;;;;6.32;2.00;;;7.30;99.90;;;;;;2073167;28;20052;-84
2023/01/14 04:06:13;;;;;;;3.85;1.60;;;7.30;99.90;;;;;;2060307;28;20065;-83
2023/01/14 04:07:14;;;;;;;6.85;1.98;;;7.30;99.90;;;;;;2061876;28;20030;-84
2023/01/14 04:08:20;;;;;;;8.38;2.55;;;7.30;99.90;;;;;;2066275;28;20029;-83
2023/01/14 04:09:20;;;;;;;7.05;2.03;;;7.30;99.90;;;;;;2065991;28;20034;-82
2023/01/14 04:10:21;;;;;;;7.82;2.00;;;7.30;99.90;;;;;;2066067;28;20517;-82
2023/01/14 04:11:21;;;;;;;6.20;1.75;;;7.40;99.90;;;;;;2073977;28;20172;-82
2023/01/14 04:12:22;;;;;;;6.22;1.77;;;7.40;99.90;;;;;;2073601;28;20029;-83
2023/01/14 04:16:02;;;;;;;6.80;2.05;;;7.40;99.90;;;;;;2065735;28;20026;-82
2023/01/14 04:17:02;;;;;;;5.50;1.98;;;7.40;99.90;;;;;;2065521;28;20104;-83
2023/01/14 04:18:03;;;;;;;4.10;1.80;;;7.40;99.90;;;;;;2065370;28;20068;-82
2023/01/14 04:19:03;;;;;;;5.75;1.80;;;7.50;99.90;;;;;;2068035;28;20541;-83
2023/01/14 04:20:05;;;;;;;6.82;1.75;;;7.50;99.90;;;;;;2070775;28;20463;-73
2023/01/14 04:21:06;;;;;;;9.93;2.10;;;7.50;99.90;;;;;;2065988;28;20070;-78
2023/01/14 04:22:06;;;;;;;6.00;2.00;;;7.50;99.90;;;;;;2070782;28;20132;-78
2023/01/14 04:23:07;;;;;;;6.65;1.90;;;7.50;99.90;;;;;;2063244;28;20034;-79
2023/01/14 04:24:08;;;;;;;7.45;1.83;;;7.50;99.90;;;;;;2067372;28;20534;-77
2023/01/14 04:25:08;;;;;;;7.78;1.90;;;7.50;99.90;;;;;;2068830;28;20038;-78
2023/01/14 04:26:09;;;;;;;5.95;1.80;;;7.50;99.90;;;;;;2064613;28;20108;-76
2023/01/14 04:27:10;;;;;;;7.63;2.08;;;7.50;99.90;;;;;;2068970;28;20034;-77
2023/01/14 04:28:10;;;;;;;6.75;1.85;;;7.50;99.90;;;;;;2067329;28;20080;-77
2023/01/14 04:29:11;;;;;;;8.43;2.10;;;7.50;99.90;;;;;;2067522;28;20512;-79
2023/01/14 04:30:12;;;;;;;8.80;2.00;;;7.50;99.90;;;;;;2067476;28;20030;-78
2023/01/14 04:31:12;;;;;;;6.45;1.75;;;7.50;99.90;;;;;;2069062;28;20516;-78
2023/01/14 04:32:13;;;;;;;7.80;2.30;;;7.50;99.90;;;;;;2067272;28;20614;-78
2023/01/14 04:33:13;;;;;;;7.80;1.92;;;7.50;99.90;;;;;;2067628;28;20038;-78
2023/01/14 04:34:14;;;;;;;8.90;2.10;;;7.50;99.90;;;;;;2067583;28;20183;-78
2023/01/14 04:35:15;;;;;;;8.05;2.47;;;7.50;99.90;;;;;;2068401;28;20323;-77
2023/01/14 04:36:15;;;;;;;7.15;2.00;;;7.50;99.90;;;;;;2064896;28;20401;-77
2023/01/14 04:37:16;;;;;;;9.18;3.15;;;7.50;99.90;;;;;;2067578;28;20021;-77
2023/01/14 04:38:21;;;;;;;9.90;5.00;;;7.60;99.90;;;;;;2066607;28;20041;-77
2023/01/14 04:39:22;;;;;;;8.55;2.40;;;7.50;99.90;;;;;;2066820;28;20575;-77
2023/01/14 04:40:22;;;;;;;8.27;2.30;;;7.50;99.90;;;;;;2069244;28;20063;-77
2023/01/14 04:42:42;;;;;;;7.28;2.13;;;7.50;99.90;;;;;;2064055;28;20037;-77
2023/01/14 04:43:42;;;;;;;5.25;1.90;;;7.50;99.90;;;;;;2067102;28;20526;-77
2023/01/14 04:44:44;;;;;;;8.02;2.13;;;7.50;99.90;;;;;;2063839;28;20030;-77
2023/01/14 04:45:49;;;;;;;8.45;2.08;;;7.40;99.90;;;;;;2067286;28;20053;-76
2023/01/14 04:46:50;;;;;;;7.63;1.88;;;7.40;99.90;;;;;;2069171;28;20033;-77
2023/01/14 04:47:50;;;;;;;4.97;1.90;;;7.40;99.90;;;;;;2072107;28;20048;-77
2023/01/14 04:48:51;;;;;;;6.00;1.80;;;7.30;99.90;;;;;;2067260;28;20519;-77
2023/01/14 04:49:51;;;;;;;9.73;2.10;;;7.30;99.90;;;;;;2067299;28;20042;-77
2023/01/14 04:50:52;;;;;;;9.88;2.00;;;7.30;99.90;;;;;;2067172;28;20061;-77
2023/01/14 04:51:53;;;;;;;5.75;2.00;;;7.30;99.90;;;;;;2069214;28;20390;-78
2023/01/14 04:52:53;;;;;;;8.30;1.95;;;7.30;99.90;;;;;;2067445;28;20087;-78
2023/01/14 04:53:54;;;;;;;6.38;1.90;;;7.30;99.90;;;;;;2067667;28;20148;-77
2023/01/14 04:54:54;;;;;;;7.70;2.30;;;7.20;99.90;;;;;;2069778;28;20034;-78
2023/01/14 04:55:55;;;;;;;6.93;2.10;;;7.20;99.90;;;;;;2069186;28;20029;-78
2023/01/14 04:56:56;;;;;;;8.02;2.05;;;7.30;99.90;;;;;;2067088;28;20038;-78
2023/01/14 04:57:56;;;;;;;6.45;1.98;;;7.30;99.90;;;;;;2081110;28;20045;-78
2023/01/14 04:59:01;;;;;;;6.35;1.90;;;7.30;99.90;;;;;;2074475;28;20021;-78
2023/01/14 05:00:02;;;;;;;7.63;2.15;;;7.30;99.90;;;;;;2067733;28;20104;-77
2023/01/14 05:01:02;;;;;;;8.63;2.10;;;7.30;99.90;;;;;;2067547;28;20103;-76
2023/01/14 05:02:03;;;;;;;7.70;2.30;;;7.30;99.90;;;;;;2068969;28;20088;-80
2023/01/14 05:03:06;;;;;;;5.68;2.05;;;7.30;99.90;;;;;;2062541;28;20092;-78
2023/01/14 05:04:06;;;;;;;9.60;2.10;;;7.30;99.90;;;;;;2062744;28;20041;-77
2023/01/14 05:05:07;;;;;;;10.32;2.33;;;7.30;99.90;;;;;;2062303;28;20387;-78
2023/01/14 05:06:08;;;;;;;6.75;2.28;;;7.30;99.90;;;;;;2061943;28;20038;-77
2023/01/14 05:07:08;;;;;;;8.60;2.10;;;7.20;99.90;;;;;;2072025;28;20104;-77
2023/01/14 05:08:10;;;;;;;8.98;2.40;;;7.20;99.90;;;;;;2062091;28;20034;-79
2023/01/14 05:09:11;;;;;;;5.60;2.00;;;7.20;99.90;;;;;;2059551;28;20038;-79
2023/01/14 05:10:11;;;;;;;6.53;2.03;;;7.20;99.90;;;;;;2066784;28;20046;-79
2023/01/14 05:11:12;;;;;;;6.93;2.20;;;7.20;99.90;;;;;;2065199;28;20038;-76
2023/01/14 05:12:12;;;;;;;7.07;1.95;;;7.10;99.90;;;;;;2067463;28;20033;-78
2023/01/14 05:13:13;;;;;;;6.63;2.10;;;7.10;99.90;;;;;;2063183;28;20255;-78
2023/01/14 05:14:14;;;;;;;6.88;2.42;;;7.10;99.90;;;;;;2063345;28;20057;-78
2023/01/14 05:15:14;;;;;;;9.50;2.17;;;7.10;99.90;;;;;;2062099;28;20030;-78
2023/01/14 05:16:16;;;;;;;6.60;2.20;;;7.10;99.90;;;;;;2064602;28;20137;-78
2023/01/14 05:17:16;;;;;;;8.95;2.13;;;7.10;99.90;;;;;;2065437;28;20122;-78
2023/01/14 05:18:17;;;;;;;6.60;1.90;;;7.20;99.90;;;;;;2059585;28;20045;-78
2023/01/14 05:19:18;;;;;;;7.57;2.25;;;7.20;99.90;;;;;;2063544;28;20114;-78
2023/01/14 05:20:19;;;;;;;6.85;2.00;;;7.20;99.90;;;;;;2063993;28;20130;-77
2023/01/14 05:21:19;;;;;;;7.32;2.10;;;7.20;99.90;;;;;;2063976;28;20885;-76
2023/01/14 05:22:20;;;;;;;8.10;2.20;;;7.20;99.90;;;;;;2061748;28;20045;-77
2023/01/14 05:23:20;;;;;;;9.02;2.40;;;7.10;99.90;;;;;;2069900;28;20041;-77
2023/01/14 05:24:21;;;;;;;9.13;2.22;;;7.10;99.90;;;;;;2057293;28;20122;-76
2023/01/14 05:25:22;;;;;;;6.07;1.92;;;7.10;99.90;;;;;;2065281;28;20045;-77
2023/01/14 05:26:22;;;;;;;7.50;2.20;;;7.10;99.90;;;;;;2080609;28;20165;-77
2023/01/14 05:27:23;;;;;;;8.65;1.77;;;7.10;99.90;;;;;;2062796;28;20046;-78
2023/01/14 05:28:23;;;;;;;9.50;2.40;;;7.20;99.90;;;;;;2063111;28;20030;-77
2023/01/14 05:29:24;;;;;;;7.55;2.28;;;7.20;99.90;;;;;;2070707;28;20492;-77
2023/01/14 05:30:24;;;;;;;8.00;2.17;;;7.20;99.90;;;;;;2063775;28;20532;-78
2023/01/14 05:31:25;;;;;;;9.25;2.10;;;7.20;99.90;;;;;;2061503;28;20030;-77
2023/01/14 05:32:25;;;;;;;9.02;2.72;;;7.20;99.90;;;;;;2070010;28;20050;-77
2023/01/14 05:33:26;;;;;;;9.07;2.17;;;7.20;99.90;;;;;;2070023;28;20018;-77
2023/01/14 05:34:27;;;;;;;9.02;2.33;;;7.20;99.90;;;;;;2062296;28;20035;-77
2023/01/14 05:35:27;;;;;;;8.20;2.30;;;7.20;99.90;;;;;;2063957;28;20089;-77
2023/01/14 05:36:28;;;;;;;6.90;2.00;;;7.20;99.90;;;;;;2063130;28;20041;-75
2023/01/14 05:37:28;;;;;;;6.93;2.25;;;7.20;99.90;;;;;;2062451;28;20036;-76
2023/01/14 05:38:29;;;;;;;8.05;2.13;;;7.20;99.90;;;;;;2063304;28;20068;-77
2023/01/14 05:39:29;;;;;;;7.95;2.35;;;7.20;99.90;;;;;;2064624;28;20041;-77
2023/01/14 05:40:30;;;;;;;9.32;2.20;;;7.20;99.90;;;;;;2062085;28;20045;-75
2023/01/14 05:41:31;;;;;;;7.85;2.05;;;7.20;99.90;;;;;;2061557;28;20524;-77
2023/01/14 05:46:30;;;;;;;7.40;2.17;;;7.10;99.90;;;;;;2063591;28;20112;-77
2023/01/14 05:47:30;;;;;;;8.85;2.30;;;7.10;99.90;;;;;;2064649;28;20041;-77
2023/01/14 05:48:31;;;;;;;6.25;1.90;;;7.10;99.90;;;;;;2061367;28;20034;-77
2023/01/14 05:49:31;;;;;;;5.50;2.10;;;7.10;99.90;;;;;;2062083;28;20494;-77
2023/01/14 05:50:32;;;;;;;7.10;2.00;;;7.10;99.90;;;;;;2062306;28;20025;-76
2023/01/14 05:51:33;;;;;;;7.13;2.15;;;7.10;99.90;;;;;;2064605;28;20037;-78
2023/01/14 05:52:33;;;;;;;8.93;2.10;;;7.10;99.90;;;;;;2059731;28;20029;-78
2023/01/14 05:53:34;;;;;;;7.30;2.22;;;7.10;99.90;;;;;;2061437;28;20098;-77
2023/01/14 05:54:34;;;;;;;5.30;1.90;;;7.10;99.90;;;;;;2060070;28;20034;-78